Tropical Cyclones
[Index]
Main Index Home Page Stock Weather Photos Extreme Storms Discussion Storm News and Storm Chasing Reports Tropical Cyclones / Hurricanes / Typhoons Weather Data and Links Wild Fires / Bushfires Weather Observation Techniques Weather Picture Catalogue Tornado Pictures and Reports Stock Video Footage and DVDs for sale
Season 1980-1981 Tropical Cyclone NEIL Track Map
Season 1980-1981 Summaries: [BoM-AU] [JTWC-AU] [JTWC-SIO] [JTWC-SPAC] [JTWC-SH]
<<- Previous TC | JTWC 1980-1981 Season | Next TC ->>

click for intensity scale information  Lat/long Grid: Show Hide

 Date Labels: Show Hide

Joint Typhoon Warning Centre Cyclone Data

Name: NEIL

24 Feb 1981 18:00 UTC to 05 Mar 1981 06:00 UTC

    date/time    lat    long     hPa   cat  kts
1981-02-24 18   18.8   115.7                  25          
1981-02-25 00   18.6   114.9                  25          
1981-02-25 06   18.3   114.1                  30          
1981-02-25 12   18.0   113.3                  30          
1981-02-25 18   17.7   112.4                  35          
1981-02-26 00   17.4   111.6                  35          
1981-02-26 06   17.0   110.9            1     40          
1981-02-26 12   16.6   110.3            1     40          
1981-02-26 18   16.2   109.9            1     45          
1981-02-27 00   16.2   109.7            1     45          
1981-02-27 06   16.3   109.5            1     50          
1981-02-27 12   15.8   109.0            2     55          
1981-02-27 18   15.5   108.5            2     60          
1981-02-28 00   15.8   107.9            2     65          
1981-02-28 06   16.1   107.3            3     75          
1981-02-28 12   16.4   106.7            3     80          
1981-02-28 18   16.7   106.1            3     90          
1981-03-01 00   16.9   105.6            3     95          
1981-03-01 06   17.0   105.1            4    100          
1981-03-01 12   17.1   104.8            4    100          
1981-03-01 18   17.2   104.6            4    100          
1981-03-02 00   17.3   104.5            4    100          
1981-03-02 06   17.5   104.4            3     95          
1981-03-02 12   17.7   104.4            3     95          
1981-03-02 18   17.9   104.5            3     90          
1981-03-03 00   18.1   104.7            3     90          
1981-03-03 06   18.2   105.0            3     85          
1981-03-03 12   18.4   105.4            3     85          
1981-03-03 18   18.6   105.8            3     80          
1981-03-04 00   18.9   106.2            3     80          
1981-03-04 06   19.4   106.7            3     75          
1981-03-04 12   19.9   107.6            2     70          
1981-03-04 18   20.5   108.9            2     65          
1981-03-05 00   21.2   110.1            2     60          
1981-03-05 06   22.0   111.4            2     55          
Winds are 1-min average.

Tropical cyclone tracks developed by Michael Bath using data from the Joint Typhoon Warning Centre Best Tracks and Google Maps.


[Australian Severe Weather index] [Copyright Notice] [Email Contacts] [Search This Site] [Privacy Policy]
Document: tropical_cyclone_neil.htm Updated: 18 September 2016